Time;durP1;ratioP1;P1;durP2;ratioP2;P2;SDS_P1;SDS_P2;PMS_P1;PMS_P2;Temp;Humidity;BMP_temperature;BMP_pressure;BME280_temperature;BME280_humidity;BME280_pressure;Samples;Min_cycle;Max_cycle;Signal;HPM_P1;HPM_P2
2022/12/23 00:00:42;;;;;;;85.72;28.08;;;;;;;8.68;100.00;100332.72;5014986;28;20037;-84
2022/12/23 00:03:07;;;;;;;76.57;27.45;;;;;;;8.62;100.00;100331.13;5015718;28;20520;-85
2022/12/23 00:05:37;;;;;;;78.57;29.75;;;;;;;8.70;100.00;100337.88;5014683;28;20037;-85
2022/12/23 00:08:04;;;;;;;83.47;30.70;;;;;;;8.68;100.00;100338.78;5014958;28;20362;-85
2022/12/23 00:10:29;;;;;;;79.57;29.33;;;;;;;8.62;100.00;100318.13;5015812;28;20096;-85
2022/12/23 00:15:38;;;;;;;92.10;33.03;;;;;;;8.65;100.00;100343.19;5015260;28;20053;-85
2022/12/23 00:18:03;;;;;;;95.18;34.33;;;;;;;8.71;100.00;100355.19;5015633;28;20469;-85
2022/12/23 00:20:29;;;;;;;92.80;33.05;;;;;;;8.70;100.00;100345.66;5015214;28;20117;-87
2022/12/23 00:23:06;;;;;;;98.72;34.55;;;;;;;8.71;100.00;100358.66;5012571;28;20041;-86
2022/12/23 00:25:39;;;;;;;93.03;34.55;;;;;;;8.71;100.00;100350.84;5014745;28;20096;-86
2022/12/23 00:28:15;;;;;;;91.40;34.17;;;;;;;8.70;100.00;100362.16;5014104;28;20052;-85
2022/12/23 00:30:57;;;;;;;95.50;35.08;;;;;;;8.72;100.00;100354.28;5013946;28;20052;-85
2022/12/23 00:33:25;;;;;;;106.50;36.70;;;;;;;8.72;100.00;100359.50;5003609;28;20106;-85
2022/12/23 00:45:15;;;;;;;102.53;33.60;;;;;;;8.71;100.00;100381.19;5023841;28;20447;-86
2022/12/23 00:50:25;;;;;;;94.55;33.80;;;;;;;8.67;100.00;100383.84;5028686;28;20405;-86
2022/12/23 00:52:51;;;;;;;96.07;33.53;;;;;;;8.68;100.00;100395.09;5020736;28;20026;-85
2022/12/23 00:55:16;;;;;;;99.53;34.08;;;;;;;8.68;100.00;100387.28;5020909;28;20041;-85
2022/12/23 00:57:42;;;;;;;109.75;36.20;;;;;;;8.64;100.00;100389.13;5043115;28;20032;-85
2022/12/23 01:00:08;;;;;;;99.25;33.95;;;;;;;8.69;100.00;100396.78;5045320;28;20026;-85
2022/12/23 01:05:35;;;;;;;;;;;;;;;8.68;100.00;100393.34;5038135;28;20552;-86
2022/12/23 01:08:07;;;;;;;107.27;35.77;;;;;;;8.57;100.00;100378.91;5044716;28;19921;-84
2022/12/23 01:10:39;;;;;;;100.57;37.30;;;;;;;8.70;100.00;100405.44;5047907;28;20096;-85
2022/12/23 01:13:05;;;;;;;109.57;36.20;;;;;;;8.70;100.00;100403.72;5046946;28;20107;-84
2022/12/23 01:15:32;;;;;;;111.82;37.30;;;;;;;8.66;100.00;100399.47;5035018;28;20028;-84
2022/12/23 01:17:57;;;;;;;110.63;38.45;;;;;;;8.64;100.00;100404.72;5033433;28;20037;-85
2022/12/23 01:20:23;;;;;;;118.63;39.33;;;;;;;8.67;100.00;100407.25;5034189;28;20025;-84
2022/12/23 01:22:48;;;;;;;104.53;39.03;;;;;;;8.62;100.00;100396.06;5025337;28;20030;-85
2022/12/23 01:25:14;;;;;;;121.82;38.90;;;;;;;8.67;100.00;100402.03;5034001;28;20531;-85
2022/12/23 01:27:39;;;;;;;115.72;37.65;;;;;;;8.63;100.00;100391.72;5033648;28;20041;-85
2022/12/23 01:30:05;;;;;;;113.68;37.92;;;;;;;8.67;100.00;100402.03;5031549;28;20056;-85
2022/12/23 01:32:30;;;;;;;114.72;39.05;;;;;;;8.68;100.00;100413.28;5032840;28;20029;-84
2022/12/23 01:34:56;;;;;;;123.30;40.33;;;;;;;8.67;100.00;100404.63;5019728;28;20083;-85
2022/12/23 01:37:21;;;;;;;121.03;39.47;;;;;;;8.59;100.00;100396.16;5033903;28;20030;-85
2022/12/23 01:39:47;;;;;;;117.03;38.53;;;;;;;8.69;100.00;100412.38;5019068;28;20359;-86
2022/12/23 01:45:10;;;;;;;116.32;39.50;;;;;;;8.67;100.00;100406.38;5034731;28;20032;-85
2022/12/23 01:48:00;;;;;;;125.78;40.25;;;;;;;8.67;100.00;100417.63;5032643;28;20033;-85
2022/12/23 01:50:39;;;;;;;121.07;39.92;;;;;;;8.61;100.00;100404.78;5033103;28;20035;-84
2022/12/23 01:53:08;;;;;;;121.15;41.17;;;;;;;8.66;100.00;100423.72;5031080;28;20029;-84
2022/12/23 01:56:10;;;;;;;120.93;41.40;;;;;;;8.67;100.00;100427.19;5041491;28;20415;-84
2022/12/23 01:58:39;;;;;;;126.80;40.33;;;;;;;8.65;100.00;100422.00;5044504;28;20048;-84
2022/12/23 02:03:51;;;;;;;127.75;39.05;;;;;;;8.64;100.00;100435.88;5031257;28;20079;-84
2022/12/23 02:09:23;;;;;;;117.30;39.75;;;;;;;8.62;100.00;100442.84;5032344;28;20040;-83
2022/12/23 02:12:06;;;;;;;111.70;37.47;;;;;;;8.66;100.00;100446.22;5027845;28;20049;-84
2022/12/23 02:17:54;;;;;;;120.93;38.50;;;;;;;8.61;100.00;100435.09;5029587;28;20507;-85
2022/12/23 02:20:46;;;;;;;129.60;40.58;;;;;;;8.66;100.00;100448.84;5031228;28;20017;-85
2022/12/23 02:23:33;;;;;;;114.20;37.17;;;;;;;8.67;100.00;100441.03;5038027;28;20547;-84
2022/12/23 02:26:04;;;;;;;125.60;38.83;;;;;;;8.66;100.00;100443.63;5037697;28;20104;-85
2022/12/23 02:28:32;;;;;;;112.90;37.28;;;;;;;8.66;100.00;100439.31;5032451;28;20022;-85
2022/12/23 02:31:19;;;;;;;115.95;38.53;;;;;;;8.65;100.00;100455.78;5030722;28;20472;-85
2022/12/23 02:34:00;;;;;;;105.82;36.00;;;;;;;8.63;100.00;100444.59;5022805;28;20051;-86
2022/12/23 02:36:52;;;;;;;103.82;35.63;;;;;;;8.56;100.00;100447.31;5040150;28;20036;-86
2022/12/23 02:39:34;;;;;;;105.07;35.67;;;;;;;8.66;100.00;100478.31;5032161;28;20104;-84
2022/12/23 02:42:14;;;;;;;105.13;35.08;;;;;;;8.60;100.00;100477.53;5025087;28;20021;-86
2022/12/23 02:44:56;;;;;;;111.47;35.20;;;;;;;8.66;100.00;100504.28;5033012;28;20129;-86
2022/12/23 02:47:27;;;;;;;108.28;35.55;;;;;;;8.62;100.00;100493.97;5020713;28;20037;-85
2022/12/23 02:49:56;;;;;;;104.57;34.70;;;;;;;8.66;100.00;100501.69;5032044;28;20495;-84
2022/12/23 02:52:28;;;;;;;105.68;33.42;;;;;;;8.66;100.00;100501.69;5038543;28;20118;-85
2022/12/23 02:54:58;;;;;;;98.97;32.42;;;;;;;8.67;100.00;100512.94;5038099;28;20025;-85
2022/12/23 02:57:31;;;;;;;109.32;33.33;;;;;;;8.67;100.00;100512.94;5045708;28;20026;-84
2022/12/23 02:59:58;;;;;;;111.72;33.90;;;;;;;8.66;100.00;100506.00;5031783;28;20033;-84
2022/12/23 03:02:24;;;;;;;115.28;32.78;;;;;;;8.65;100.00;100504.31;5031859;28;20485;-85
2022/12/23 03:04:49;;;;;;;90.25;30.13;;;;;;;8.66;100.00;100499.09;5032400;28;20056;-85
2022/12/23 03:07:34;;;;;;;104.15;31.58;;;;;;;8.64;100.00;100503.44;5032514;28;20021;-84
2022/12/23 03:10:15;;;;;;;96.88;31.23;;;;;;;8.64;100.00;100502.59;5029970;28;20083;-85
2022/12/23 03:12:56;;;;;;;104.82;32.95;;;;;;;8.58;100.00;100503.56;5026353;28;20026;-86
2022/12/23 03:15:46;;;;;;;103.75;31.30;;;;;;;8.66;100.00;100519.00;5046332;28;20013;-88
2022/12/23 03:18:24;;;;;;;98.43;30.95;;;;;;;8.61;100.00;100516.50;5032821;28;20577;-85
2022/12/23 03:20:56;;;;;;;106.40;31.00;;;;;;;8.65;100.00;100512.09;5029901;28;20053;-85
2022/12/23 03:23:47;;;;;;;101.22;30.83;;;;;;;8.60;100.00;100507.00;5032213;28;20164;-85
2022/12/23 03:26:23;;;;;;;106.13;31.48;;;;;;;8.64;100.00;100508.66;5046502;28;20060;-86
2022/12/23 03:29:06;;;;;;;104.95;31.08;;;;;;;8.55;100.00;100495.84;5029147;28;20465;-85
2022/12/23 03:31:33;;;;;;;103.20;33.20;;;;;;;8.57;100.00;100494.09;5027833;28;20037;-84
2022/12/23 03:34:05;;;;;;;97.72;28.45;;;;;;;8.63;100.00;100501.75;5023563;28;20026;-85
2022/12/23 03:36:40;;;;;;;100.78;29.67;;;;;;;8.62;100.00;100500.03;5035889;28;20079;-85
2022/12/23 03:39:10;;;;;;;101.38;30.48;;;;;;;8.61;100.00;100513.06;5034256;28;20116;-85
2022/12/23 03:41:41;;;;;;;94.53;28.95;;;;;;;8.53;100.00;100497.59;5041319;28;20435;-85
2022/12/23 03:44:17;;;;;;;99.20;29.38;;;;;;;8.54;100.00;100498.50;5037225;28;20037;-84
2022/12/23 03:46:54;;;;;;;99.03;29.88;;;;;;;8.58;100.00;100502.72;5049568;28;20024;-85
2022/12/23 03:49:27;;;;;;;104.88;30.02;;;;;;;8.57;100.00;100507.06;5033324;28;20392;-84
2022/12/23 03:52:00;;;;;;;103.10;30.27;;;;;;;8.56;100.00;100505.34;5021385;28;20049;-85
2022/12/23 03:54:31;;;;;;;107.15;29.55;;;;;;;8.36;100.00;100478.88;5034190;28;20076;-84
2022/12/23 03:57:01;;;;;;;106.72;30.38;;;;;;;8.42;100.00;100494.38;5035617;28;20152;-87
2022/12/23 03:59:31;;;;;;;113.95;30.58;;;;;;;8.43;100.00;100494.34;5045546;28;20035;-85
2022/12/23 04:02:17;;;;;;;108.70;31.02;;;;;;;8.53;100.00;100504.56;5035793;28;20101;-85
2022/12/23 04:05:04;;;;;;;122.63;31.02;;;;;;;8.52;100.00;100513.25;5032318;28;20037;-85
2022/12/23 04:07:34;;;;;;;111.80;32.35;;;;;;;8.52;100.00;100515.84;5032621;28;20025;-84
2022/12/23 04:10:00;;;;;;;105.50;31.50;;;;;;;8.51;100.00;100520.19;5055180;28;20499;-85
2022/12/23 04:12:28;;;;;;;110.20;30.55;;;;;;;8.50;100.00;100526.28;5055503;28;20184;-84
2022/12/23 04:14:53;;;;;;;116.32;32.97;;;;;;;8.50;100.00;100523.69;5042423;28;20501;-85
2022/12/23 04:17:20;;;;;;;118.72;32.13;;;;;;;8.47;100.00;100526.34;5035342;28;20104;-84
2022/12/23 04:19:46;;;;;;;116.35;32.30;;;;;;;8.50;100.00;100531.47;5042574;28;20112;-84
2022/12/23 04:22:12;;;;;;;114.70;31.75;;;;;;;8.47;100.00;100526.34;5039838;28;20599;-84
2022/12/23 04:24:38;;;;;;;115.20;32.45;;;;;;;8.50;100.00;100533.19;5034825;28;20029;-85
2022/12/23 04:27:04;;;;;;;117.65;33.50;;;;;;;8.44;100.00;100532.44;5033459;28;20747;-84
2022/12/23 04:29:29;;;;;;;120.55;32.50;;;;;;;8.48;100.00;100546.22;5050236;28;20029;-84
2022/12/23 04:31:55;;;;;;;115.85;31.80;;;;;;;8.49;100.00;100555.72;5034716;28;20033;-84
2022/12/23 04:34:23;;;;;;;110.43;31.17;;;;;;;8.43;100.00;100540.25;5048140;28;20025;-84
2022/12/23 04:36:48;;;;;;;97.80;28.98;;;;;;;8.48;100.00;100558.38;5050944;23;20021;-84
2022/12/23 04:39:13;;;;;;;106.28;29.23;;;;;;;8.48;100.00;100556.63;5053646;28;20135;-84
2022/12/23 04:41:38;;;;;;;115.68;29.77;;;;;;;8.49;100.00;100555.72;5050413;28;20384;-84
2022/12/23 04:44:04;;;;;;;115.32;31.33;;;;;;;8.44;100.00;100542.84;5052919;28;20041;-85
2022/12/23 04:46:29;;;;;;;109.57;29.77;;;;;;;8.47;100.00;100544.53;5054498;28;20017;-85
2022/12/23 04:48:54;;;;;;;114.25;31.70;;;;;;;8.47;100.00;100546.25;5053817;28;20037;-84
2022/12/23 04:51:20;;;;;;;125.10;31.33;;;;;;;8.46;100.00;100541.94;5051738;28;20071;-84
2022/12/23 04:53:45;;;;;;;115.82;31.02;;;;;;;8.46;100.00;100537.59;5054551;28;20104;-85
2022/12/23 04:56:10;;;;;;;121.93;32.47;;;;;;;8.45;100.00;100538.50;5054101;28;20488;-85
2022/12/23 04:58:36;;;;;;;109.00;31.05;;;;;;;8.46;100.00;100529.78;5054643;28;20065;-84
2022/12/23 05:01:09;;;;;;;127.30;33.75;;;;;;;8.45;100.00;100528.09;5052333;28;20053;-85
2022/12/23 05:03:38;;;;;;;106.70;29.88;;;;;;;8.46;100.00;100527.19;5053027;28;20067;-84
2022/12/23 05:06:04;;;;;;;107.63;29.50;;;;;;;8.41;100.00;100513.47;5053737;28;20040;-85
2022/12/23 05:08:29;;;;;;;117.75;29.88;;;;;;;8.46;100.00;100518.56;5054115;28;20480;-84
2022/12/23 05:10:55;;;;;;;120.95;30.27;;;;;;;8.45;100.00;100522.91;5052714;28;20060;-85
2022/12/23 05:13:20;;;;;;;120.00;31.25;;;;;;;8.36;100.00;100507.47;5054436;28;20025;-85
2022/12/23 05:15:48;;;;;;;120.70;31.25;;;;;;;8.44;100.00;100526.41;5053735;28;20062;-85
2022/12/23 05:18:14;;;;;;;116.43;30.88;;;;;;;8.39;100.00;100525.63;5051991;28;20028;-85
2022/12/23 05:20:40;;;;;;;115.30;30.83;;;;;;;8.43;100.00;100537.66;5053382;28;20020;-85
2022/12/23 05:23:05;;;;;;;114.05;30.90;;;;;;;8.46;100.00;100553.19;5053478;28;20040;-85
2022/12/23 05:25:35;;;;;;;116.38;31.65;;;;;;;8.32;100.00;100536.97;5053795;28;20028;-85
2022/12/23 05:28:01;;;;;;;121.68;30.88;;;;;;;8.40;100.00;100556.78;5053200;28;20488;-85
2022/12/23 05:30:27;;;;;;;128.23;30.50;;;;;;;8.45;100.00;100569.66;5052107;28;20469;-85
2022/12/23 05:32:53;;;;;;;121.25;31.63;;;;;;;8.43;100.00;100572.28;5053613;28;20090;-85
2022/12/23 05:35:19;;;;;;;118.03;30.85;;;;;;;8.41;100.00;100570.63;5054282;28;20036;-86
2022/12/23 05:37:44;;;;;;;104.78;28.83;;;;;;;8.41;100.00;100571.47;5052019;28;20040;-86
2022/12/23 05:40:10;;;;;;;110.50;29.42;;;;;;;8.46;100.00;100581.75;5052706;28;20028;-86
2022/12/23 05:42:35;;;;;;;115.80;30.20;;;;;;;8.46;100.00;100586.09;5053748;28;20021;-86
2022/12/23 05:45:00;;;;;;;123.80;32.03;;;;;;;8.47;100.00;100587.81;5052862;28;20219;-86
2022/12/23 05:47:26;;;;;;;124.38;31.75;;;;;;;8.47;100.00;100590.41;5052729;28;20029;-86
2022/12/23 05:49:51;;;;;;;123.28;31.27;;;;;;;8.48;100.00;100584.34;5051873;28;20021;-86
2022/12/23 05:52:16;;;;;;;138.05;32.92;;;;;;;8.41;100.00;100563.66;5051557;28;20510;-87
2022/12/23 05:54:41;;;;;;;136.70;33.55;;;;;;;8.43;100.00;100564.47;5053427;28;20115;-86
2022/12/23 05:57:07;;;;;;;142.30;34.70;;;;;;;8.47;100.00;100570.50;5053180;28;20047;-87
2022/12/23 05:59:32;;;;;;;142.15;36.75;;;;;;;8.44;100.00;100549.78;5051575;28;20036;-86
2022/12/23 06:01:57;;;;;;;143.48;38.58;;;;;;;8.36;100.00;100547.28;5052975;28;20089;-86
2022/12/23 06:04:22;;;;;;;146.43;38.97;;;;;;;8.42;100.00;100554.13;5053408;28;20485;-86
2022/12/23 06:06:48;;;;;;;158.82;41.22;;;;;;;8.26;100.00;100522.38;5051101;28;20090;-87
2022/12/23 06:09:13;;;;;;;155.63;39.75;;;;;;;8.30;100.00;100525.75;5052705;28;20130;-85
2022/12/23 06:11:38;;;;;;;152.90;39.67;;;;;;;8.28;100.00;100524.94;5053220;28;20036;-87
2022/12/23 06:14:06;;;;;;;140.70;38.83;;;;;;;8.37;100.00;100537.72;5051485;28;20021;-86
2022/12/23 06:16:31;;;;;;;147.00;40.90;;;;;;;8.37;100.00;100545.53;5052206;28;20031;-85
2022/12/23 06:18:56;;;;;;;186.32;42.97;;;;;;;8.37;100.00;100537.72;5052670;28;20103;-86
2022/12/23 06:21:24;;;;;;;164.23;41.65;;;;;;;8.30;100.00;100524.00;5052969;28;20055;-86
2022/12/23 06:23:49;;;;;;;157.60;41.90;;;;;;;8.27;100.00;100523.22;5052234;28;20036;-84
2022/12/23 06:26:15;;;;;;;162.02;42.60;;;;;;;8.29;100.00;100516.25;5053001;28;20017;-86
2022/12/23 06:28:40;;;;;;;165.15;41.42;;;;;;;8.32;100.00;100527.44;5050799;28;20048;-85
2022/12/23 06:31:05;;;;;;;196.93;42.58;;;;;;;8.28;100.00;100519.75;5052791;28;20032;-86
2022/12/23 06:33:30;;;;;;;176.43;42.15;;;;;;;8.36;100.00;100543.81;5051409;28;20037;-85
2022/12/23 06:35:56;;;;;;;168.90;42.55;;;;;;;8.33;100.00;100541.28;5052611;28;20029;-86
2022/12/23 06:38:22;;;;;;;178.52;42.15;;;;;;;8.34;100.00;100540.41;5052640;28;20105;-86
2022/12/23 06:40:47;;;;;;;159.68;41.83;;;;;;;8.36;100.00;100543.81;5051832;28;20021;-86
2022/12/23 06:43:13;;;;;;;170.02;42.90;;;;;;;8.37;100.00;100545.53;5051268;28;20021;-85
2022/12/23 06:45:39;;;;;;;171.35;42.88;;;;;;;8.34;100.00;100550.81;5052702;28;20048;-86
2022/12/23 06:48:05;;;;;;;151.18;40.35;;;;;;;8.37;100.00;100558.50;5058878;23;20126;-85
2022/12/23 06:50:30;;;;;;;168.77;44.88;;;;;;;8.36;100.00;100570.66;5052761;28;20379;-86
2022/12/23 06:52:56;;;;;;;178.20;44.30;;;;;;;8.33;100.00;100562.06;5050624;28;20483;-86
2022/12/23 06:55:21;;;;;;;183.02;44.70;;;;;;;8.26;100.00;100556.13;5051541;28;20365;-86
2022/12/23 06:57:46;;;;;;;180.57;44.67;;;;;;;8.36;100.00;100578.44;5052364;28;20029;-86
2022/12/23 07:00:12;;;;;;;199.93;44.53;;;;;;;8.37;100.00;100597.47;5051510;28;20024;-85
2022/12/23 07:02:38;;;;;;;170.45;41.85;;;;;;;8.32;100.00;100591.53;5050269;28;20412;-85
2022/12/23 07:05:03;;;;;;;182.90;44.00;;;;;;;8.37;100.00;100602.66;5052309;28;20040;-85
2022/12/23 07:07:31;;;;;;;197.20;44.03;;;;;;;8.37;100.00;100618.25;5051941;28;20171;-85
2022/12/23 07:09:56;;;;;;;172.95;41.78;;;;;;;8.34;100.00;100624.38;5051426;28;20687;-86
2022/12/23 07:12:21;;;;;;;168.68;42.78;;;;;;;8.25;100.00;100601.16;5050741;28;20025;-85
2022/12/23 07:14:46;;;;;;;159.07;39.70;;;;;;;8.35;100.00;100614.84;5050336;28;20116;-85
2022/12/23 07:17:12;;;;;;;180.60;41.05;;;;;;;8.32;100.00;100594.13;5050329;28;20033;-86
2022/12/23 07:19:37;;;;;;;184.18;40.78;;;;;;;8.35;100.00;100599.25;5052326;28;20040;-84
2022/12/23 07:22:02;;;;;;;179.45;40.72;;;;;;;8.36;100.00;100593.16;5052018;28;20073;-85
2022/12/23 07:24:28;;;;;;;173.13;40.42;;;;;;;8.29;100.00;100591.59;5051600;28;20021;-85
2022/12/23 07:26:54;;;;;;;166.70;40.03;;;;;;;8.25;100.00;100570.00;5051877;28;20025;-85
2022/12/23 07:29:20;;;;;;;169.50;39.90;;;;;;;8.35;100.00;100584.53;5051917;28;20103;-84
2022/12/23 07:31:45;;;;;;;199.48;42.25;;;;;;;8.35;100.00;100597.53;5051110;28;20116;-85
2022/12/23 07:34:10;;;;;;;189.23;42.22;;;;;;;8.31;100.00;100590.66;5042689;28;20083;-85
2022/12/23 07:36:36;;;;;;;239.00;42.08;;;;;;;8.35;100.00;100588.88;5046888;28;20111;-85
2022/12/23 07:39:01;;;;;;;192.82;41.20;;;;;;;8.26;100.00;100573.44;5051175;28;20040;-85
2022/12/23 07:41:26;;;;;;;181.05;41.05;;;;;;;8.35;100.00;100575.88;5052099;28;20022;-85
2022/12/23 07:43:51;;;;;;;180.93;40.00;;;;;;;8.26;100.00;100571.69;5051020;28;20021;-85
2022/12/23 07:46:17;;;;;;;206.20;41.58;;;;;;;8.32;100.00;100578.53;5051939;28;20033;-85
2022/12/23 07:48:42;;;;;;;177.48;40.90;;;;;;;8.27;100.00;100573.41;5051514;28;20056;-85
2022/12/23 07:51:08;;;;;;;186.45;40.78;;;;;;;8.31;100.00;100584.63;5051243;28;20082;-85
2022/12/23 07:53:33;;;;;;;184.27;40.10;;;;;;;8.29;100.00;100589.84;5044128;28;20100;-84
2022/12/23 07:55:59;;;;;;;185.52;40.17;;;;;;;8.23;100.00;100592.53;5051804;28;20468;-85
2022/12/23 07:58:24;;;;;;;178.73;39.38;;;;;;;8.21;100.00;100574.41;5051275;28;20029;-85
2022/12/23 08:00:49;;;;;;;169.85;38.47;;;;;;;8.26;100.00;100578.66;5051518;28;20020;-85
2022/12/23 08:03:15;;;;;;;189.40;38.53;;;;;;;8.26;100.00;100594.22;5051766;28;20039;-85
2022/12/23 08:05:40;;;;;;;193.05;37.53;;;;;;;8.19;100.00;100578.75;5051392;28;20024;-84
2022/12/23 08:08:05;;;;;;;154.32;37.10;;;;;;;8.27;100.00;100575.16;5051852;28;20035;-85
2022/12/23 08:10:31;;;;;;;151.63;36.25;;;;;;;8.19;100.00;100547.59;5051514;28;20620;-85
2022/12/23 08:12:59;;;;;;;159.13;35.28;;;;;;;8.28;100.00;100569.09;5051221;28;20055;-84
2022/12/23 08:17:59;;;;;;;133.57;33.00;;;;;;;8.26;100.00;100560.47;5143910;23;20500;-85
2022/12/23 08:20:25;;;;;;;147.05;34.00;;;;;;;8.19;100.00;100552.78;5055085;28;20051;-86
2022/12/23 08:22:50;;;;;;;139.65;32.60;;;;;;;8.21;100.00;100560.56;5055300;28;20078;-86
2022/12/23 08:25:15;;;;;;;146.90;32.58;;;;;;;8.28;100.00;100587.28;5055094;28;20021;-85
2022/12/23 08:27:40;;;;;;;129.82;32.28;;;;;;;8.28;100.00;100577.75;5054298;28;20099;-85
2022/12/23 08:30:06;;;;;;;122.78;29.98;;;;;;;8.26;100.00;100573.44;5055588;28;20024;-85
2022/12/23 08:32:32;;;;;;;121.97;29.83;;;;;;;8.29;100.00;100579.44;5054459;28;20052;-85
2022/12/23 08:34:57;;;;;;;129.05;29.23;;;;;;;8.28;100.00;100576.88;5054418;28;20472;-86
2022/12/23 08:37:23;;;;;;;123.90;28.40;;;;;;;8.18;100.00;100571.84;5055008;28;20037;-85
2022/12/23 08:39:48;;;;;;;112.55;28.60;;;;;;;8.27;100.00;100567.38;5053905;28;20021;-86
2022/12/23 08:42:14;;;;;;;97.97;27.80;;;;;;;8.24;100.00;100555.31;5047913;28;20033;-85
2022/12/23 08:44:39;;;;;;;127.55;28.63;;;;;;;8.21;100.00;100556.22;5054817;28;20720;-84
2022/12/23 08:47:04;;;;;;;108.40;26.60;;;;;;;8.25;100.00;100551.81;5052213;28;20372;-84
2022/12/23 08:49:30;;;;;;;117.22;28.90;;;;;;;8.26;100.00;100550.06;5054255;28;20107;-85
2022/12/23 08:51:55;;;;;;;99.82;27.70;;;;;;;8.19;100.00;100537.19;5039894;28;20053;-84
2022/12/23 08:54:22;;;;;;;99.90;27.08;;;;;;;8.24;100.00;100546.63;5035250;28;20021;-85
2022/12/23 08:56:48;;;;;;;108.22;26.45;;;;;;;8.19;100.00;100536.34;5042608;28;20036;-85
2022/12/23 08:59:15;;;;;;;110.07;26.90;;;;;;;8.23;100.00;100550.13;5045130;28;20041;-85
2022/12/23 09:01:41;;;;;;;95.65;26.20;;;;;;;8.24;100.00;100546.63;5049528;28;20452;-85
2022/12/23 09:04:08;;;;;;;108.00;26.58;;;;;;;8.24;100.00;100536.25;5054840;28;20025;-85
2022/12/23 09:06:37;;;;;;;110.45;28.38;;;;;;;8.25;100.00;100530.19;5053073;28;20025;-84
2022/12/23 09:09:03;;;;;;;96.38;25.90;;;;;;;8.23;100.00;100519.81;5053869;28;20061;-86
2022/12/23 09:11:29;;;;;;;87.78;24.08;;;;;;;8.24;100.00;100518.06;5053052;28;20025;-85
2022/12/23 09:13:56;;;;;;;96.38;25.15;;;;;;;8.19;100.00;100502.59;5054125;28;20522;-86
2022/12/23 09:16:22;;;;;;;82.22;23.48;;;;;;;8.17;100.00;100499.16;5051825;28;20084;-85
2022/12/23 09:18:47;;;;;;;80.35;22.30;;;;;;;8.19;100.00;100495.66;5053491;28;20071;-86
2022/12/23 09:21:16;;;;;;;78.78;22.50;;;;;;;8.15;100.00;100491.41;5052564;28;20082;-86
2022/12/23 09:23:42;;;;;;;79.88;22.65;;;;;;;8.25;100.00;100493.84;5050912;28;20075;-86
2022/12/23 09:26:08;;;;;;;73.13;20.83;;;;;;;8.21;100.00;100483.50;5053832;28;20431;-85
2022/12/23 09:28:34;;;;;;;83.10;23.05;;;;;;;8.23;100.00;100490.41;5053351;28;20132;-86
2022/12/23 09:31:07;;;;;;;81.43;22.20;;;;;;;8.25;100.00;100499.88;5049788;28;20539;-86
2022/12/23 09:33:32;;;;;;;;;;;;;;;8.28;100.00;100496.38;5036337;28;20021;-86
2022/12/23 09:36:02;;;;;;;75.60;19.87;;;;;;;8.26;100.00;100486.00;5052403;28;19943;-86
2022/12/23 09:38:27;;;;;;;67.03;18.25;;;;;;;8.28;100.00;100489.44;5050431;28;20299;-86
2022/12/23 09:40:59;;;;;;;66.38;19.75;;;;;;;8.23;100.00;100467.03;5050196;28;20024;-86
2022/12/23 09:44:07;;;;;;;68.20;19.75;;;;;;;8.28;100.00;100483.41;5049166;28;20025;-85
2022/12/23 09:46:37;;;;;;;63.25;19.05;;;;;;;8.27;100.00;100472.13;5052836;28;20074;-83
2022/12/23 09:49:09;;;;;;;59.67;19.42;;;;;;;8.30;100.00;100463.41;5052415;28;20029;-85
2022/12/23 09:51:35;;;;;;;67.68;19.45;;;;;;;8.27;100.00;100451.34;5053167;28;20520;-84
2022/12/23 09:54:12;;;;;;;64.20;18.88;;;;;;;8.31;100.00;100457.38;5054140;28;20108;-85
2022/12/23 09:56:59;;;;;;;66.55;19.58;;;;;;;8.36;100.00;100464.16;5054089;28;20028;-85
2022/12/23 09:59:42;;;;;;;54.72;18.77;;;;;;;8.38;100.00;100475.41;5045768;28;20120;-85
2022/12/23 10:02:29;;;;;;;63.40;18.90;;;;;;;8.40;100.00;100473.66;5050788;28;20021;-87
2022/12/23 10:05:31;;;;;;;61.63;19.77;;;;;;;8.42;100.00;100479.66;5051754;28;20115;-87
2022/12/23 10:08:00;;;;;;;72.10;20.83;;;;;;;8.41;100.00;100477.09;5048746;28;20147;-87
2022/12/23 10:10:49;;;;;;;64.43;19.35;;;;;;;8.38;100.00;100465.03;5053732;28;20029;-86
2022/12/23 10:13:28;;;;;;;70.35;20.45;;;;;;;8.38;100.00;100449.44;5006030;28;20037;-86
2022/12/23 10:15:56;;;;;;;78.68;21.30;;;;;;;8.33;100.00;100442.59;5050120;28;20100;-86
2022/12/23 10:18:43;;;;;;;74.03;22.73;;;;;;;8.40;100.00;100441.59;5052028;28;20060;-86
2022/12/23 10:21:15;;;;;;;69.85;20.90;;;;;;;8.36;100.00;100437.31;5036888;28;20037;-86
2022/12/23 10:23:45;;;;;;;68.68;20.98;;;;;;;8.40;100.00;100428.59;5044903;28;20036;-86
2022/12/23 10:26:34;;;;;;;66.43;20.38;;;;;;;8.48;100.00;100421.53;5051907;28;20484;-86
2022/12/23 10:29:13;;;;;;;61.28;20.02;;;;;;;8.48;100.00;100403.34;5053220;28;20033;-86
2022/12/23 10:31:46;;;;;;;57.63;18.17;;;;;;;8.54;100.00;100418.78;5044506;28;20031;-87
2022/12/23 10:34:32;;;;;;;54.10;19.08;;;;;;;8.56;100.00;100409.22;5052404;28;20033;-87
2022/12/23 10:37:06;;;;;;;59.50;18.40;;;;;;;8.57;100.00;100392.75;5052978;28;20112;-85
2022/12/23 10:39:38;;;;;;;60.97;18.73;;;;;;;8.66;100.00;100387.34;5052141;28;20103;-86
2022/12/23 10:42:10;;;;;;;57.33;19.13;;;;;;;8.80;100.00;100391.38;5051189;28;20029;-86
2022/12/23 10:44:52;;;;;;;53.33;17.60;;;;;;;8.76;100.00;100394.91;5050816;28;20037;-85
2022/12/23 10:47:32;;;;;;;49.85;16.50;;;;;;;8.66;100.00;100379.56;5043506;28;20047;-86
2022/12/23 10:49:57;;;;;;;43.42;15.85;;;;;;;8.71;100.00;100383.78;5052096;28;20125;-86
2022/12/23 10:52:27;;;;;;;39.40;16.17;;;;;;;8.56;100.00;100362.44;5051450;28;20068;-85
2022/12/23 10:54:52;;;;;;;48.15;15.00;;;;;;;8.52;100.00;100354.75;5051298;28;20052;-86
2022/12/23 10:57:19;;;;;;;44.58;14.93;;;;;;;8.54;100.00;100364.22;5052928;28;20106;-86
2022/12/23 10:59:44;;;;;;;42.38;14.95;;;;;;;8.44;100.00;100341.97;5052447;28;20029;-85
2022/12/23 11:02:10;;;;;;;41.50;14.13;;;;;;;8.51;100.00;100346.13;5050778;28;20021;-86
2022/12/23 11:04:38;;;;;;;44.25;14.82;;;;;;;8.53;100.00;100346.91;5052641;28;20037;-85
2022/12/23 11:07:07;;;;;;;40.17;14.73;;;;;;;8.55;100.00;100329.56;5050781;28;20098;-86
2022/12/23 11:09:38;;;;;;;34.53;13.93;;;;;;;8.55;100.00;100321.75;5047894;28;20026;-86
2022/12/23 11:12:07;;;;;;;42.25;14.13;;;;;;;8.59;100.00;100322.53;5050945;28;20067;-85
2022/12/23 11:14:40;;;;;;;42.55;14.10;;;;;;;8.56;100.00;100318.25;5052758;28;20036;-85
2022/12/23 11:17:19;;;;;;;39.50;14.27;;;;;;;8.52;100.00;100321.84;5051260;28;20094;-86
2022/12/23 11:19:44;;;;;;;37.13;13.05;;;;;;;8.46;100.00;100326.31;5050777;28;20025;-85
2022/12/23 11:22:22;;;;;;;33.55;13.27;;;;;;;8.43;100.00;100322.03;5052715;28;20021;-85
2022/12/23 11:24:47;;;;;;;32.40;12.30;;;;;;;8.31;100.00;100311.91;5046605;28;20028;-86
2022/12/23 11:27:15;;;;;;;34.28;12.57;;;;;;;8.25;100.00;100299.91;5052205;28;20033;-86
2022/12/23 11:29:48;;;;;;;36.30;12.93;;;;;;;8.34;100.00;100311.84;5049244;28;20043;-88
2022/12/23 11:32:21;;;;;;;41.33;12.63;;;;;;;8.32;100.00;100295.44;5052115;28;20033;-86
2022/12/23 11:34:48;;;;;;;35.03;12.73;;;;;;;8.32;100.00;100295.44;5051252;28;20514;-86
2022/12/23 11:37:41;;;;;;;33.40;12.63;;;;;;;8.32;100.00;100292.84;5051156;28;20045;-84
2022/12/23 11:40:24;;;;;;;32.67;11.65;;;;;;;8.32;100.00;100287.66;5040913;28;20113;-82
2022/12/23 11:43:00;;;;;;;33.38;11.63;;;;;;;8.31;100.00;100281.59;5046351;28;20052;-85
2022/12/23 11:45:29;;;;;;;39.72;12.45;;;;;;;8.34;100.00;100267.69;5049919;28;20087;-86
2022/12/23 11:47:55;;;;;;;36.45;12.85;;;;;;;8.32;100.00;100259.06;5051295;28;20043;-85